Terminal Aerodrome Forecast
Issued by NWS

Home | Current Version | Previous Version | Text Only | Print | Product List | Glossary On
Versions: 1 2 3 4 5 6 7 8 9 10 11 12 13 14 15
000
FTUS44 KLIX 302339
TAFHUM
TAF
KHUM 302339Z 0100/0124 15007KT P6SM BKN011 BKN015
     FM010300 23007KT P6SM SCT011 BKN030 BKN070
     FM010900 29004KT P6SM SKC=

USA.gov is the U.S. government's official web portal to all federal, state and local government web resources and services.